createdAt,value
2022-11-05T00:02:58.022Z,13.33
2022-11-05T00:08:23.165Z,12.52
2022-11-05T00:13:44.919Z,13.73
2022-11-05T00:19:06.609Z,13.00
2022-11-05T00:24:28.195Z,12.09
2022-11-05T00:29:31.434Z,13.38
2022-11-05T00:34:34.209Z,13.47
2022-11-05T00:39:36.977Z,13.76
2022-11-05T00:44:58.536Z,12.17
2022-11-05T00:50:01.227Z,12.71
2022-11-05T00:55:05.097Z,13.22
2022-11-05T01:00:08.787Z,13.50
2022-11-05T01:05:12.095Z,13.12
2022-11-05T01:10:15.046Z,11.88
2022-11-05T01:15:19.565Z,12.43
2022-11-05T01:20:22.369Z,12.61
2022-11-05T01:25:25.039Z,12.66
2022-11-05T01:30:27.659Z,12.74
2022-11-05T01:35:30.444Z,12.73
2022-11-05T01:40:33.737Z,12.74
2022-11-05T01:45:36.834Z,12.84
2022-11-05T01:50:39.549Z,12.47
2022-11-05T01:55:48.433Z,12.77
2022-11-05T02:00:51.382Z,12.56
2022-11-05T02:05:56.902Z,12.14
2022-11-05T02:10:59.614Z,12.29
2022-11-05T02:16:14.283Z,12.60
2022-11-05T02:21:53.889Z,12.46
2022-11-05T02:27:05.870Z,12.55
2022-11-05T02:32:31.096Z,12.60
2022-11-05T02:37:41.465Z,12.62
2022-11-05T02:43:34.907Z,12.74
2022-11-05T02:48:51.227Z,12.42
2022-11-05T02:54:05.332Z,12.22
2022-11-05T02:59:08.450Z,12.11
2022-11-05T03:04:14.240Z,11.75
2022-11-05T03:09:25.815Z,11.83
2022-11-05T03:14:56.288Z,12.12
2022-11-05T03:20:16.705Z,12.15
2022-11-05T03:25:23.009Z,12.02
2022-11-05T03:30:26.739Z,11.95
2022-11-05T03:35:36.335Z,11.73
2022-11-05T03:40:41.567Z,11.97
2022-11-05T03:45:50.599Z,11.78
2022-11-05T03:51:19.310Z,12.11
2022-11-05T03:57:00.088Z,11.91
2022-11-05T04:02:03.198Z,11.56
2022-11-05T04:07:25.276Z,11.58
2022-11-05T04:12:46.792Z,11.45
2022-11-05T04:17:49.505Z,11.32
2022-11-05T04:23:26.713Z,11.30
2022-11-05T04:28:49.562Z,11.28
2022-11-05T04:33:52.340Z,11.53
2022-11-05T04:38:55.169Z,11.13
2022-11-05T04:43:58.035Z,11.06
2022-11-05T04:49:00.818Z,10.99
2022-11-05T04:54:03.728Z,11.10
2022-11-05T04:59:06.886Z,10.91
2022-11-05T05:04:10.316Z,11.13
2022-11-05T05:09:13.180Z,11.30
2022-11-05T05:14:16.016Z,11.42
2022-11-05T05:19:18.920Z,11.36
2022-11-05T05:24:21.926Z,11.17
2022-11-05T05:29:25.234Z,11.10
2022-11-05T05:34:28.012Z,11.17
2022-11-05T05:39:30.836Z,10.74
2022-11-05T05:44:33.588Z,10.97
2022-11-05T05:49:36.646Z,11.07
2022-11-05T05:54:42.748Z,11.21
2022-11-05T05:59:46.044Z,11.54
2022-11-05T06:04:48.947Z,11.42
2022-11-05T06:09:51.753Z,11.56
2022-11-05T06:14:54.560Z,11.82
2022-11-05T06:19:57.551Z,11.77
2022-11-05T06:25:00.335Z,11.57
2022-11-05T06:30:05.256Z,11.61
2022-11-05T06:35:09.250Z,11.73
2022-11-05T06:40:12.146Z,11.78
2022-11-05T06:45:14.939Z,12.31
2022-11-05T06:50:17.747Z,11.83
2022-11-05T06:55:20.649Z,12.14
2022-11-05T07:00:23.948Z,12.23
2022-11-05T07:05:26.756Z,12.53
2022-11-05T07:10:30.587Z,12.32
2022-11-05T07:15:33.455Z,12.34
2022-11-05T07:20:36.305Z,12.30
2022-11-05T07:25:42.383Z,12.76
2022-11-05T07:30:45.302Z,12.64
2022-11-05T07:35:48.280Z,12.38
2022-11-05T07:40:51.087Z,12.33
2022-11-05T07:45:53.864Z,12.49
2022-11-05T07:50:56.634Z,12.90
2022-11-05T07:55:59.491Z,12.72
2022-11-05T08:01:02.405Z,13.38
2022-11-05T08:06:05.497Z,13.46
2022-11-05T08:11:10.656Z,13.27
2022-11-05T08:16:13.460Z,13.33
2022-11-05T08:21:16.263Z,13.67
2022-11-05T08:26:19.727Z,13.72
2022-11-05T08:31:22.462Z,13.37
2022-11-05T08:36:25.153Z,13.40
2022-11-05T08:41:28.289Z,13.63
2022-11-05T08:46:30.967Z,13.85
2022-11-05T08:51:33.791Z,13.81
2022-11-05T08:56:36.698Z,13.73
2022-11-05T09:01:39.657Z,13.97
2022-11-05T09:06:42.633Z,13.73
2022-11-05T09:12:10.725Z,14.11
2022-11-05T09:17:18.214Z,14.08
2022-11-05T09:22:21.014Z,14.21
2022-11-05T09:27:24.965Z,14.33
2022-11-05T09:32:27.745Z,13.94
2022-11-05T09:37:30.855Z,14.07
2022-11-05T09:42:41.400Z,14.51
2022-11-05T09:47:50.307Z,14.73
2022-11-05T09:52:53.086Z,14.55
2022-11-05T09:58:00.724Z,14.79
2022-11-05T10:03:12.405Z,14.93
2022-11-05T10:08:32.809Z,15.15
2022-11-05T10:13:41.669Z,15.44
2022-11-05T10:18:48.976Z,15.52
2022-11-05T10:23:51.980Z,15.56
2022-11-05T10:28:55.500Z,15.43
2022-11-05T10:34:02.500Z,15.63
2022-11-05T10:39:19.807Z,15.80
2022-11-05T10:44:57.481Z,16.11
2022-11-05T10:50:03.541Z,16.08
2022-11-05T10:55:21.804Z,16.09
2022-11-05T11:00:26.461Z,16.17
2022-11-05T11:05:30.745Z,15.99
2022-11-05T11:10:41.786Z,15.53
2022-11-05T11:15:44.688Z,15.64
2022-11-05T11:20:47.385Z,15.75
2022-11-05T11:26:03.720Z,15.79
2022-11-05T11:31:16.255Z,16.08
2022-11-05T11:36:26.717Z,16.34
2022-11-05T11:41:43.147Z,16.01
2022-11-05T11:46:49.834Z,14.01
2022-11-05T11:51:59.789Z,14.76
2022-11-05T11:57:03.118Z,15.61
2022-11-05T12:02:24.611Z,16.10
2022-11-05T12:07:46.688Z,16.41
2022-11-05T12:13:06.614Z,16.50
2022-11-05T12:18:27.537Z,16.01
2022-11-05T12:23:38.739Z,14.66
2022-11-05T12:29:17.212Z,15.82
2022-11-05T12:34:30.953Z,16.13
2022-11-05T12:39:47.993Z,16.39
2022-11-05T12:45:23.480Z,16.50
2022-11-05T12:50:38.020Z,16.02
2022-11-05T12:55:49.625Z,14.36
2022-11-05T13:01:00.509Z,15.27
2022-11-05T13:06:11.585Z,15.86
2022-11-05T13:11:35.406Z,16.16
2022-11-05T13:16:43.124Z,16.28
2022-11-05T13:21:52.585Z,16.35
2022-11-05T13:27:12.598Z,16.00
2022-11-05T13:32:24.656Z,13.92
2022-11-05T13:37:50.982Z,13.50
2022-11-05T13:43:10.150Z,14.97
2022-11-05T13:48:34.566Z,15.55
2022-11-05T13:54:11.538Z,15.78
2022-11-05T13:59:29.511Z,15.88
2022-11-05T14:04:41.247Z,15.95
2022-11-05T14:09:44.752Z,16.11
2022-11-05T14:14:58.495Z,16.15
2022-11-05T14:20:04.687Z,16.16
2022-11-05T14:25:19.879Z,16.20
2022-11-05T14:30:46.059Z,16.31
2022-11-05T14:35:49.138Z,16.24
2022-11-05T14:41:02.900Z,16.22
2022-11-05T14:46:07.116Z,16.37
2022-11-05T14:51:22.138Z,15.54
2022-11-05T14:56:24.900Z,13.35
2022-11-05T15:01:33.414Z,13.35
2022-11-05T15:06:39.441Z,14.56
2022-11-05T15:11:54.622Z,15.15
2022-11-05T15:17:08.385Z,15.39
2022-11-05T15:22:24.926Z,15.61
2022-11-05T15:27:43.114Z,15.46
2022-11-05T15:32:46.413Z,15.33
2022-11-05T15:37:55.975Z,15.46
2022-11-05T15:43:17.723Z,15.59
2022-11-05T15:48:20.468Z,15.80
2022-11-05T15:53:56.058Z,15.88
2022-11-05T15:59:06.056Z,15.72
2022-11-05T16:04:44.470Z,15.77
2022-11-05T16:09:59.640Z,15.65
2022-11-05T16:15:08.312Z,15.67
2022-11-05T16:20:22.163Z,15.84
2022-11-05T16:25:40.225Z,15.89
2022-11-05T16:31:05.161Z,15.71
2022-11-05T16:36:08.593Z,15.61
2022-11-05T16:41:16.805Z,15.59
2022-11-05T16:46:20.303Z,15.57
2022-11-05T16:51:27.339Z,15.57
2022-11-05T16:56:30.912Z,15.55
2022-11-05T17:01:35.846Z,15.70
2022-11-05T17:06:38.822Z,15.73
2022-11-05T17:11:41.793Z,15.73
2022-11-05T17:16:44.594Z,15.66
2022-11-05T17:21:47.396Z,15.65
2022-11-05T17:26:50.200Z,15.58
2022-11-05T17:31:53.205Z,15.63
2022-11-05T17:36:56.067Z,15.65
2022-11-05T17:41:58.794Z,15.67
2022-11-05T17:47:01.904Z,15.60
2022-11-05T17:52:04.922Z,15.60
2022-11-05T17:57:07.851Z,15.62
2022-11-05T18:02:11.868Z,15.65
2022-11-05T18:07:15.381Z,15.73
2022-11-05T18:12:18.176Z,15.67
2022-11-05T18:17:21.182Z,15.55
2022-11-05T18:22:24.602Z,15.48
2022-11-05T18:27:27.793Z,15.54
2022-11-05T18:32:30.536Z,15.62
2022-11-05T18:37:33.330Z,15.63
2022-11-05T18:42:36.270Z,15.52
2022-11-05T18:47:39.037Z,15.53
2022-11-05T18:52:41.820Z,15.48
2022-11-05T18:57:44.924Z,15.40
2022-11-05T19:02:47.956Z,15.28
2022-11-05T19:07:51.254Z,15.27
2022-11-05T19:12:54.380Z,15.35
2022-11-05T19:17:57.162Z,15.42
2022-11-05T19:22:59.849Z,15.43
2022-11-05T19:28:03.571Z,15.49
2022-11-05T19:33:06.385Z,15.49
2022-11-05T19:38:09.361Z,13.98
2022-11-05T19:43:12.423Z,13.02
2022-11-05T19:48:19.499Z,14.24
2022-11-05T19:53:23.429Z,14.92
2022-11-05T19:58:26.196Z,15.12
2022-11-05T20:03:29.052Z,15.32
2022-11-05T20:08:31.817Z,15.43
2022-11-05T20:13:35.082Z,15.36
2022-11-05T20:18:37.778Z,15.21
2022-11-05T20:23:40.631Z,15.09
2022-11-05T20:28:43.914Z,14.98
2022-11-05T20:33:47.072Z,14.99
2022-11-05T20:38:55.397Z,15.00
2022-11-05T20:43:58.309Z,15.03
2022-11-05T20:49:01.119Z,15.10
2022-11-05T20:54:04.323Z,15.01
2022-11-05T20:59:07.125Z,14.89
2022-11-05T21:04:09.900Z,14.84
2022-11-05T21:09:13.142Z,14.91
2022-11-05T21:14:15.849Z,14.98
2022-11-05T21:19:18.640Z,14.95
2022-11-05T21:24:21.750Z,14.90
2022-11-05T21:29:24.571Z,14.83
2022-11-05T21:34:27.973Z,14.74
2022-11-05T21:39:30.914Z,14.75
2022-11-05T21:44:33.673Z,14.71
2022-11-05T21:49:36.399Z,14.58
2022-11-05T21:54:58.009Z,14.50
2022-11-05T22:00:03.839Z,14.41
2022-11-05T22:05:07.600Z,14.35
2022-11-05T22:10:16.144Z,14.40
2022-11-05T22:15:19.478Z,14.34
2022-11-05T22:20:22.265Z,14.26
2022-11-05T22:25:25.171Z,14.17
2022-11-05T22:30:27.958Z,14.13
2022-11-05T22:35:30.897Z,14.09
2022-11-05T22:40:33.658Z,14.05
2022-11-05T22:45:37.245Z,13.94
2022-11-05T22:50:40.202Z,13.83
2022-11-05T22:55:42.974Z,13.75
2022-11-05T23:00:45.804Z,13.75
2022-11-05T23:05:57.412Z,13.78
2022-11-05T23:11:29.896Z,13.79
2022-11-05T23:16:51.323Z,13.71
2022-11-05T23:22:12.931Z,13.73
2022-11-05T23:27:15.659Z,13.76
2022-11-05T23:32:24.885Z,13.73
2022-11-05T23:38:05.330Z,13.70
2022-11-05T23:43:29.185Z,13.55
2022-11-05T23:48:37.160Z,13.46
2022-11-05T23:53:41.046Z,13.38
2022-11-05T23:58:43.879Z,13.38
